sensor_id;sensor_type;location;lat;lon;timestamp;P1;durP1;ratioP1;P2;durP2;ratioP2
19434;SDS011;9853;50.848;4.108;2022-09-09T00:00:44;7.38;;;1.08;;
19434;SDS011;9853;50.848;4.108;2022-09-09T00:05:14;5.05;;;0.80;;
19434;SDS011;9853;50.848;4.108;2022-09-09T00:07:45;3.95;;;1.00;;
19434;SDS011;9853;50.848;4.108;2022-09-09T00:12:18;5.20;;;1.02;;
19434;SDS011;9853;50.848;4.108;2022-09-09T00:14:23;4.78;;;1.00;;
19434;SDS011;9853;50.848;4.108;2022-09-09T00:16:51;7.10;;;1.27;;
19434;SDS011;9853;50.848;4.108;2022-09-09T00:21:34;5.47;;;0.82;;
19434;SDS011;9853;50.848;4.108;2022-09-09T00:23:50;4.13;;;0.95;;
19434;SDS011;9853;50.848;4.108;2022-09-09T00:28:22;9.35;;;1.50;;
19434;SDS011;9853;50.848;4.108;2022-09-09T00:30:30;6.20;;;1.20;;
19434;SDS011;9853;50.848;4.108;2022-09-09T00:32:40;12.27;;;1.60;;
19434;SDS011;9853;50.848;4.108;2022-09-09T00:34:47;8.18;;;1.50;;
19434;SDS011;9853;50.848;4.108;2022-09-09T00:36:53;9.73;;;1.42;;
19434;SDS011;9853;50.848;4.108;2022-09-09T00:38:56;9.70;;;1.75;;
19434;SDS011;9853;50.848;4.108;2022-09-09T00:43:30;11.32;;;2.25;;
19434;SDS011;9853;50.848;4.108;2022-09-09T00:48:15;5.47;;;1.88;;
19434;SDS011;9853;50.848;4.108;2022-09-09T00:50:20;11.05;;;2.25;;
19434;SDS011;9853;50.848;4.108;2022-09-09T00:52:37;7.82;;;2.33;;
19434;SDS011;9853;50.848;4.108;2022-09-09T00:57:18;12.15;;;2.78;;
19434;SDS011;9853;50.848;4.108;2022-09-09T00:59:31;10.73;;;2.58;;
19434;SDS011;9853;50.848;4.108;2022-09-09T01:01:45;9.10;;;2.65;;
19434;SDS011;9853;50.848;4.108;2022-09-09T01:03:52;10.05;;;3.00;;
19434;SDS011;9853;50.848;4.108;2022-09-09T01:05:58;8.77;;;2.60;;
19434;SDS011;9853;50.848;4.108;2022-09-09T01:10:50;10.40;;;2.83;;
19434;SDS011;9853;50.848;4.108;2022-09-09T01:13:13;10.05;;;3.20;;
19434;SDS011;9853;50.848;4.108;2022-09-09T01:15:32;9.40;;;2.83;;
19434;SDS011;9853;50.848;4.108;2022-09-09T01:17:46;8.75;;;2.78;;
19434;SDS011;9853;50.848;4.108;2022-09-09T01:24:40;11.43;;;2.72;;
19434;SDS011;9853;50.848;4.108;2022-09-09T01:27:34;11.43;;;3.17;;
19434;SDS011;9853;50.848;4.108;2022-09-09T01:29:37;14.65;;;3.13;;
19434;SDS011;9853;50.848;4.108;2022-09-09T01:31:41;10.75;;;3.55;;
19434;SDS011;9853;50.848;4.108;2022-09-09T01:34:00;11.95;;;3.90;;
19434;SDS011;9853;50.848;4.108;2022-09-09T01:38:19;14.95;;;3.30;;
19434;SDS011;9853;50.848;4.108;2022-09-09T01:40:24;11.13;;;3.00;;
19434;SDS011;9853;50.848;4.108;2022-09-09T01:42:26;9.13;;;2.75;;
19434;SDS011;9853;50.848;4.108;2022-09-09T01:44:27;9.50;;;2.47;;
19434;SDS011;9853;50.848;4.108;2022-09-09T01:46:30;13.00;;;2.63;;
19434;SDS011;9853;50.848;4.108;2022-09-09T01:48:31;9.60;;;2.30;;
19434;SDS011;9853;50.848;4.108;2022-09-09T01:50:39;15.20;;;2.70;;
19434;SDS011;9853;50.848;4.108;2022-09-09T01:52:40;14.00;;;2.17;;
19434;SDS011;9853;50.848;4.108;2022-09-09T01:54:45;11.05;;;2.05;;
19434;SDS011;9853;50.848;4.108;2022-09-09T02:03:53;13.18;;;2.08;;
19434;SDS011;9853;50.848;4.108;2022-09-09T02:08:23;7.47;;;1.80;;
19434;SDS011;9853;50.848;4.108;2022-09-09T02:10:55;9.18;;;1.70;;
19434;SDS011;9853;50.848;4.108;2022-09-09T02:13:12;10.75;;;2.38;;
19434;SDS011;9853;50.848;4.108;2022-09-09T02:15:26;6.28;;;1.70;;
19434;SDS011;9853;50.848;4.108;2022-09-09T02:17:44;11.48;;;1.63;;
19434;SDS011;9853;50.848;4.108;2022-09-09T02:19:52;9.00;;;1.83;;
19434;SDS011;9853;50.848;4.108;2022-09-09T02:22:17;9.05;;;1.90;;
19434;SDS011;9853;50.848;4.108;2022-09-09T02:24:21;13.55;;;1.88;;
19434;SDS011;9853;50.848;4.108;2022-09-09T02:26:33;13.40;;;1.67;;
19434;SDS011;9853;50.848;4.108;2022-09-09T02:28:41;13.23;;;1.90;;
19434;SDS011;9853;50.848;4.108;2022-09-09T02:30:42;13.52;;;1.75;;
19434;SDS011;9853;50.848;4.108;2022-09-09T02:32:48;9.07;;;1.70;;
19434;SDS011;9853;50.848;4.108;2022-09-09T02:34:55;16.88;;;1.58;;
19434;SDS011;9853;50.848;4.108;2022-09-09T02:37:00;15.57;;;1.70;;
19434;SDS011;9853;50.848;4.108;2022-09-09T02:39:03;12.63;;;2.08;;
19434;SDS011;9853;50.848;4.108;2022-09-09T02:41:09;13.75;;;1.98;;
19434;SDS011;9853;50.848;4.108;2022-09-09T02:43:10;8.10;;;1.63;;
19434;SDS011;9853;50.848;4.108;2022-09-09T02:45:12;9.73;;;1.33;;
19434;SDS011;9853;50.848;4.108;2022-09-09T02:47:25;13.32;;;1.77;;
19434;SDS011;9853;50.848;4.108;2022-09-09T02:54:10;14.63;;;1.83;;
19434;SDS011;9853;50.848;4.108;2022-09-09T02:56:18;12.57;;;1.90;;
19434;SDS011;9853;50.848;4.108;2022-09-09T02:58:23;10.60;;;1.67;;
19434;SDS011;9853;50.848;4.108;2022-09-09T03:00:32;16.67;;;1.92;;
19434;SDS011;9853;50.848;4.108;2022-09-09T03:02:36;20.40;;;2.00;;
19434;SDS011;9853;50.848;4.108;2022-09-09T03:04:40;9.30;;;1.60;;
19434;SDS011;9853;50.848;4.108;2022-09-09T03:06:44;15.23;;;2.13;;
19434;SDS011;9853;50.848;4.108;2022-09-09T03:08:53;10.32;;;1.50;;
19434;SDS011;9853;50.848;4.108;2022-09-09T03:10:59;10.02;;;1.65;;
19434;SDS011;9853;50.848;4.108;2022-09-09T03:13:05;8.18;;;1.33;;
19434;SDS011;9853;50.848;4.108;2022-09-09T03:15:10;13.32;;;1.50;;
19434;SDS011;9853;50.848;4.108;2022-09-09T03:17:12;12.20;;;1.70;;
19434;SDS011;9853;50.848;4.108;2022-09-09T03:19:20;16.33;;;1.83;;
19434;SDS011;9853;50.848;4.108;2022-09-09T03:21:21;15.52;;;2.03;;
19434;SDS011;9853;50.848;4.108;2022-09-09T03:23:23;13.43;;;1.67;;
19434;SDS011;9853;50.848;4.108;2022-09-09T03:25:24;11.27;;;1.80;;
19434;SDS011;9853;50.848;4.108;2022-09-09T03:27:27;6.63;;;1.48;;
19434;SDS011;9853;50.848;4.108;2022-09-09T03:29:28;13.80;;;1.90;;
19434;SDS011;9853;50.848;4.108;2022-09-09T03:31:32;12.68;;;1.83;;
19434;SDS011;9853;50.848;4.108;2022-09-09T03:33:34;11.65;;;1.95;;
19434;SDS011;9853;50.848;4.108;2022-09-09T03:35:36;19.05;;;2.10;;
19434;SDS011;9853;50.848;4.108;2022-09-09T03:37:37;13.13;;;1.77;;
19434;SDS011;9853;50.848;4.108;2022-09-09T03:39:39;18.77;;;2.10;;
19434;SDS011;9853;50.848;4.108;2022-09-09T03:41:40;8.77;;;1.88;;
19434;SDS011;9853;50.848;4.108;2022-09-09T03:43:41;11.20;;;2.00;;
19434;SDS011;9853;50.848;4.108;2022-09-09T03:45:45;9.93;;;1.38;;
19434;SDS011;9853;50.848;4.108;2022-09-09T03:47:49;9.38;;;1.70;;
19434;SDS011;9853;50.848;4.108;2022-09-09T03:49:50;13.13;;;1.50;;
19434;SDS011;9853;50.848;4.108;2022-09-09T03:51:51;11.20;;;1.92;;
19434;SDS011;9853;50.848;4.108;2022-09-09T03:53:52;10.48;;;1.75;;
19434;SDS011;9853;50.848;4.108;2022-09-09T03:55:55;10.13;;;1.55;;
19434;SDS011;9853;50.848;4.108;2022-09-09T03:58:00;11.75;;;1.70;;
19434;SDS011;9853;50.848;4.108;2022-09-09T04:00:04;13.93;;;1.90;;
19434;SDS011;9853;50.848;4.108;2022-09-09T04:02:16;6.72;;;1.52;;
19434;SDS011;9853;50.848;4.108;2022-09-09T04:04:17;19.63;;;1.63;;
19434;SDS011;9853;50.848;4.108;2022-09-09T04:06:19;15.88;;;1.88;;
19434;SDS011;9853;50.848;4.108;2022-09-09T04:08:22;13.60;;;1.63;;
19434;SDS011;9853;50.848;4.108;2022-09-09T04:10:25;8.38;;;1.73;;
19434;SDS011;9853;50.848;4.108;2022-09-09T04:12:28;10.45;;;1.80;;
19434;SDS011;9853;50.848;4.108;2022-09-09T04:14:29;11.45;;;1.33;;
19434;SDS011;9853;50.848;4.108;2022-09-09T04:16:31;12.93;;;1.92;;
19434;SDS011;9853;50.848;4.108;2022-09-09T04:18:33;14.68;;;1.85;;
19434;SDS011;9853;50.848;4.108;2022-09-09T04:20:34;10.68;;;1.48;;
19434;SDS011;9853;50.848;4.108;2022-09-09T04:22:36;7.72;;;1.30;;
19434;SDS011;9853;50.848;4.108;2022-09-09T04:24:38;13.68;;;1.88;;
19434;SDS011;9853;50.848;4.108;2022-09-09T04:26:39;11.13;;;1.60;;
19434;SDS011;9853;50.848;4.108;2022-09-09T04:28:41;17.23;;;2.03;;
19434;SDS011;9853;50.848;4.108;2022-09-09T04:30:49;11.25;;;1.48;;
19434;SDS011;9853;50.848;4.108;2022-09-09T04:32:51;13.18;;;1.70;;
19434;SDS011;9853;50.848;4.108;2022-09-09T04:34:51;13.55;;;1.50;;
19434;SDS011;9853;50.848;4.108;2022-09-09T04:36:53;10.30;;;1.60;;
19434;SDS011;9853;50.848;4.108;2022-09-09T04:38:53;16.42;;;1.75;;
19434;SDS011;9853;50.848;4.108;2022-09-09T04:40:54;12.27;;;1.63;;
19434;SDS011;9853;50.848;4.108;2022-09-09T04:42:59;12.07;;;1.40;;
19434;SDS011;9853;50.848;4.108;2022-09-09T04:45:00;15.75;;;1.95;;
19434;SDS011;9853;50.848;4.108;2022-09-09T04:47:02;9.75;;;1.70;;
19434;SDS011;9853;50.848;4.108;2022-09-09T04:49:03;14.55;;;1.85;;
19434;SDS011;9853;50.848;4.108;2022-09-09T04:51:06;17.92;;;2.00;;
19434;SDS011;9853;50.848;4.108;2022-09-09T04:53:10;15.23;;;2.40;;
19434;SDS011;9853;50.848;4.108;2022-09-09T04:55:12;14.80;;;2.30;;
19434;SDS011;9853;50.848;4.108;2022-09-09T04:57:16;12.80;;;1.88;;
19434;SDS011;9853;50.848;4.108;2022-09-09T04:59:16;12.90;;;2.00;;
19434;SDS011;9853;50.848;4.108;2022-09-09T05:01:21;18.48;;;2.03;;
19434;SDS011;9853;50.848;4.108;2022-09-09T05:03:25;16.02;;;1.92;;
19434;SDS011;9853;50.848;4.108;2022-09-09T05:05:26;12.65;;;2.10;;
19434;SDS011;9853;50.848;4.108;2022-09-09T05:07:28;13.77;;;1.92;;
19434;SDS011;9853;50.848;4.108;2022-09-09T05:09:31;20.60;;;2.20;;
19434;SDS011;9853;50.848;4.108;2022-09-09T05:11:35;13.07;;;2.10;;
19434;SDS011;9853;50.848;4.108;2022-09-09T05:13:58;11.25;;;1.90;;
19434;SDS011;9853;50.848;4.108;2022-09-09T05:15:59;14.25;;;1.83;;
19434;SDS011;9853;50.848;4.108;2022-09-09T05:18:01;12.88;;;2.13;;
19434;SDS011;9853;50.848;4.108;2022-09-09T05:20:06;14.75;;;1.98;;
19434;SDS011;9853;50.848;4.108;2022-09-09T05:22:06;13.18;;;1.92;;
19434;SDS011;9853;50.848;4.108;2022-09-09T05:24:15;12.13;;;1.73;;
19434;SDS011;9853;50.848;4.108;2022-09-09T05:26:18;15.30;;;2.17;;
19434;SDS011;9853;50.848;4.108;2022-09-09T05:28:22;9.25;;;1.85;;
19434;SDS011;9853;50.848;4.108;2022-09-09T05:30:25;11.05;;;1.80;;
19434;SDS011;9853;50.848;4.108;2022-09-09T05:32:26;16.83;;;2.30;;
19434;SDS011;9853;50.848;4.108;2022-09-09T05:34:32;10.30;;;1.92;;
19434;SDS011;9853;50.848;4.108;2022-09-09T05:36:34;13.48;;;2.17;;
19434;SDS011;9853;50.848;4.108;2022-09-09T05:38:35;17.70;;;2.40;;
19434;SDS011;9853;50.848;4.108;2022-09-09T05:40:36;14.93;;;1.67;;
19434;SDS011;9853;50.848;4.108;2022-09-09T05:42:37;13.25;;;1.77;;
19434;SDS011;9853;50.848;4.108;2022-09-09T05:44:39;11.90;;;1.90;;
19434;SDS011;9853;50.848;4.108;2022-09-09T05:46:41;10.10;;;1.63;;
19434;SDS011;9853;50.848;4.108;2022-09-09T05:48:42;11.27;;;1.70;;
19434;SDS011;9853;50.848;4.108;2022-09-09T05:50:52;14.07;;;2.05;;
19434;SDS011;9853;50.848;4.108;2022-09-09T05:52:54;8.25;;;1.70;;
19434;SDS011;9853;50.848;4.108;2022-09-09T05:54:55;14.43;;;1.90;;
19434;SDS011;9853;50.848;4.108;2022-09-09T05:56:57;15.50;;;1.73;;
19434;SDS011;9853;50.848;4.108;2022-09-09T05:58:58;15.50;;;1.77;;
19434;SDS011;9853;50.848;4.108;2022-09-09T06:01:10;12.88;;;1.67;;
19434;SDS011;9853;50.848;4.108;2022-09-09T06:03:15;8.68;;;1.60;;
19434;SDS011;9853;50.848;4.108;2022-09-09T06:05:17;10.77;;;1.88;;
19434;SDS011;9853;50.848;4.108;2022-09-09T06:07:20;12.02;;;1.40;;
19434;SDS011;9853;50.848;4.108;2022-09-09T06:09:20;9.35;;;1.60;;
19434;SDS011;9853;50.848;4.108;2022-09-09T06:11:22;11.88;;;1.83;;
19434;SDS011;9853;50.848;4.108;2022-09-09T06:13:24;13.35;;;2.38;;
19434;SDS011;9853;50.848;4.108;2022-09-09T06:15:25;11.05;;;1.52;;
19434;SDS011;9853;50.848;4.108;2022-09-09T06:17:27;11.68;;;1.52;;
19434;SDS011;9853;50.848;4.108;2022-09-09T06:19:28;15.75;;;2.10;;
19434;SDS011;9853;50.848;4.108;2022-09-09T06:21:34;16.60;;;2.00;;
19434;SDS011;9853;50.848;4.108;2022-09-09T06:23:42;12.90;;;2.08;;
19434;SDS011;9853;50.848;4.108;2022-09-09T06:25:47;10.40;;;1.38;;
19434;SDS011;9853;50.848;4.108;2022-09-09T06:27:49;11.00;;;1.52;;
19434;SDS011;9853;50.848;4.108;2022-09-09T06:29:50;12.10;;;1.80;;
19434;SDS011;9853;50.848;4.108;2022-09-09T06:31:51;9.27;;;1.92;;
19434;SDS011;9853;50.848;4.108;2022-09-09T06:33:55;16.88;;;1.77;;
19434;SDS011;9853;50.848;4.108;2022-09-09T06:35:58;13.10;;;1.67;;
19434;SDS011;9853;50.848;4.108;2022-09-09T06:37:59;9.48;;;1.52;;
19434;SDS011;9853;50.848;4.108;2022-09-09T06:40:00;12.65;;;2.10;;
19434;SDS011;9853;50.848;4.108;2022-09-09T06:42:02;17.13;;;2.10;;
19434;SDS011;9853;50.848;4.108;2022-09-09T06:44:22;15.75;;;1.73;;
19434;SDS011;9853;50.848;4.108;2022-09-09T06:46:32;10.57;;;1.80;;
19434;SDS011;9853;50.848;4.108;2022-09-09T06:48:34;9.85;;;1.80;;
19434;SDS011;9853;50.848;4.108;2022-09-09T06:50:37;19.35;;;2.08;;
19434;SDS011;9853;50.848;4.108;2022-09-09T06:52:38;15.82;;;2.15;;
19434;SDS011;9853;50.848;4.108;2022-09-09T06:55:08;11.75;;;1.70;;
19434;SDS011;9853;50.848;4.108;2022-09-09T06:57:19;10.05;;;1.40;;
19434;SDS011;9853;50.848;4.108;2022-09-09T06:59:20;13.23;;;1.92;;
19434;SDS011;9853;50.848;4.108;2022-09-09T07:01:44;10.25;;;1.52;;
19434;SDS011;9853;50.848;4.108;2022-09-09T07:03:50;7.18;;;1.67;;
19434;SDS011;9853;50.848;4.108;2022-09-09T07:06:19;12.32;;;1.50;;
19434;SDS011;9853;50.848;4.108;2022-09-09T07:08:28;10.32;;;1.70;;
19434;SDS011;9853;50.848;4.108;2022-09-09T07:10:53;11.48;;;1.70;;
19434;SDS011;9853;50.848;4.108;2022-09-09T07:12:56;15.05;;;2.08;;
19434;SDS011;9853;50.848;4.108;2022-09-09T07:14:58;13.65;;;1.70;;
19434;SDS011;9853;50.848;4.108;2022-09-09T07:17:02;13.23;;;1.73;;
19434;SDS011;9853;50.848;4.108;2022-09-09T07:19:09;12.00;;;1.48;;
19434;SDS011;9853;50.848;4.108;2022-09-09T07:21:12;10.02;;;1.70;;
19434;SDS011;9853;50.848;4.108;2022-09-09T07:23:16;12.68;;;1.50;;
19434;SDS011;9853;50.848;4.108;2022-09-09T07:25:18;15.30;;;1.95;;
19434;SDS011;9853;50.848;4.108;2022-09-09T07:27:22;11.43;;;1.52;;
19434;SDS011;9853;50.848;4.108;2022-09-09T07:29:27;8.95;;;1.40;;
19434;SDS011;9853;50.848;4.108;2022-09-09T07:31:32;10.73;;;1.55;;
19434;SDS011;9853;50.848;4.108;2022-09-09T07:33:35;10.18;;;1.45;;
19434;SDS011;9853;50.848;4.108;2022-09-09T07:35:36;9.80;;;1.52;;
19434;SDS011;9853;50.848;4.108;2022-09-09T07:37:37;14.05;;;1.45;;
19434;SDS011;9853;50.848;4.108;2022-09-09T07:39:38;11.63;;;1.55;;
19434;SDS011;9853;50.848;4.108;2022-09-09T07:41:41;10.80;;;1.58;;
19434;SDS011;9853;50.848;4.108;2022-09-09T07:43:48;9.77;;;1.65;;
19434;SDS011;9853;50.848;4.108;2022-09-09T07:45:56;11.77;;;1.63;;
19434;SDS011;9853;50.848;4.108;2022-09-09T07:47:58;15.70;;;1.80;;
19434;SDS011;9853;50.848;4.108;2022-09-09T07:50:01;14.43;;;1.85;;
19434;SDS011;9853;50.848;4.108;2022-09-09T07:52:04;7.78;;;1.70;;
19434;SDS011;9853;50.848;4.108;2022-09-09T07:54:08;8.52;;;1.45;;
19434;SDS011;9853;50.848;4.108;2022-09-09T07:56:12;9.32;;;1.45;;
19434;SDS011;9853;50.848;4.108;2022-09-09T07:58:48;10.15;;;1.90;;
19434;SDS011;9853;50.848;4.108;2022-09-09T08:00:50;12.95;;;1.70;;
19434;SDS011;9853;50.848;4.108;2022-09-09T08:02:50;11.50;;;1.58;;
19434;SDS011;9853;50.848;4.108;2022-09-09T08:04:56;8.50;;;1.55;;
19434;SDS011;9853;50.848;4.108;2022-09-09T08:06:58;10.20;;;1.85;;
19434;SDS011;9853;50.848;4.108;2022-09-09T08:09:01;8.05;;;1.80;;
19434;SDS011;9853;50.848;4.108;2022-09-09T08:11:06;8.65;;;1.67;;
19434;SDS011;9853;50.848;4.108;2022-09-09T08:13:09;9.63;;;1.20;;
19434;SDS011;9853;50.848;4.108;2022-09-09T08:15:12;8.30;;;1.50;;
19434;SDS011;9853;50.848;4.108;2022-09-09T08:17:13;13.02;;;1.80;;
19434;SDS011;9853;50.848;4.108;2022-09-09T08:19:17;7.97;;;1.20;;
19434;SDS011;9853;50.848;4.108;2022-09-09T08:21:37;13.00;;;1.80;;
19434;SDS011;9853;50.848;4.108;2022-09-09T08:23:40;6.82;;;1.38;;
19434;SDS011;9853;50.848;4.108;2022-09-09T08:25:42;11.18;;;1.67;;
19434;SDS011;9853;50.848;4.108;2022-09-09T08:27:48;9.02;;;1.58;;
19434;SDS011;9853;50.848;4.108;2022-09-09T08:29:49;9.75;;;1.50;;
19434;SDS011;9853;50.848;4.108;2022-09-09T08:31:52;17.10;;;1.77;;
19434;SDS011;9853;50.848;4.108;2022-09-09T08:33:55;12.23;;;1.88;;
19434;SDS011;9853;50.848;4.108;2022-09-09T08:36:02;11.18;;;1.70;;
19434;SDS011;9853;50.848;4.108;2022-09-09T08:38:04;10.20;;;1.48;;
19434;SDS011;9853;50.848;4.108;2022-09-09T08:40:05;12.23;;;1.67;;
19434;SDS011;9853;50.848;4.108;2022-09-09T08:50:13;8.13;;;1.60;;
19434;SDS011;9853;50.848;4.108;2022-09-09T08:52:54;9.32;;;1.67;;
19434;SDS011;9853;50.848;4.108;2022-09-09T08:57:28;6.20;;;1.45;;
19434;SDS011;9853;50.848;4.108;2022-09-09T08:59:31;10.50;;;1.52;;
19434;SDS011;9853;50.848;4.108;2022-09-09T09:01:44;7.85;;;1.50;;
19434;SDS011;9853;50.848;4.108;2022-09-09T09:11:22;6.65;;;1.40;;
19434;SDS011;9853;50.848;4.108;2022-09-09T09:13:30;11.05;;;1.45;;
19434;SDS011;9853;50.848;4.108;2022-09-09T09:15:37;9.80;;;1.73;;
19434;SDS011;9853;50.848;4.108;2022-09-09T09:17:39;8.90;;;1.60;;
19434;SDS011;9853;50.848;4.108;2022-09-09T09:19:43;8.95;;;1.58;;
19434;SDS011;9853;50.848;4.108;2022-09-09T09:21:49;7.90;;;1.58;;
19434;SDS011;9853;50.848;4.108;2022-09-09T09:24:04;7.68;;;1.83;;
19434;SDS011;9853;50.848;4.108;2022-09-09T09:26:16;10.57;;;2.10;;
19434;SDS011;9853;50.848;4.108;2022-09-09T09:28:23;10.57;;;1.58;;
19434;SDS011;9853;50.848;4.108;2022-09-09T09:30:31;9.10;;;1.65;;
19434;SDS011;9853;50.848;4.108;2022-09-09T09:32:43;9.43;;;1.60;;
19434;SDS011;9853;50.848;4.108;2022-09-09T09:34:59;10.27;;;1.70;;
19434;SDS011;9853;50.848;4.108;2022-09-09T09:39:33;9.10;;;1.45;;
19434;SDS011;9853;50.848;4.108;2022-09-09T09:41:49;11.95;;;1.40;;
19434;SDS011;9853;50.848;4.108;2022-09-09T09:43:54;7.40;;;1.30;;
19434;SDS011;9853;50.848;4.108;2022-09-09T09:45:55;9.05;;;1.10;;
19434;SDS011;9853;50.848;4.108;2022-09-09T09:48:01;7.60;;;1.45;;
19434;SDS011;9853;50.848;4.108;2022-09-09T09:50:17;8.48;;;1.65;;
19434;SDS011;9853;50.848;4.108;2022-09-09T09:52:22;11.52;;;1.42;;
19434;SDS011;9853;50.848;4.108;2022-09-09T09:54:32;6.88;;;1.60;;
19434;SDS011;9853;50.848;4.108;2022-09-09T09:56:37;7.47;;;1.45;;
19434;SDS011;9853;50.848;4.108;2022-09-09T10:00:53;8.95;;;1.50;;
19434;SDS011;9853;50.848;4.108;2022-09-09T10:03:00;9.77;;;1.52;;
19434;SDS011;9853;50.848;4.108;2022-09-09T10:05:08;11.07;;;1.48;;
19434;SDS011;9853;50.848;4.108;2022-09-09T10:07:20;7.32;;;1.38;;
19434;SDS011;9853;50.848;4.108;2022-09-09T10:11:30;9.98;;;1.08;;
19434;SDS011;9853;50.848;4.108;2022-09-09T10:13:57;10.00;;;1.38;;
19434;SDS011;9853;50.848;4.108;2022-09-09T10:16:38;12.15;;;1.70;;
19434;SDS011;9853;50.848;4.108;2022-09-09T10:19:13;8.43;;;1.40;;
19434;SDS011;9853;50.848;4.108;2022-09-09T10:42:33;9.77;;;1.50;;
19434;SDS011;9853;50.848;4.108;2022-09-09T10:47:12;9.25;;;1.38;;
19434;SDS011;9853;50.848;4.108;2022-09-09T10:51:51;8.15;;;1.67;;
19434;SDS011;9853;50.848;4.108;2022-09-09T10:56:22;6.65;;;1.30;;
19434;SDS011;9853;50.848;4.108;2022-09-09T10:58:28;9.75;;;1.40;;
19434;SDS011;9853;50.848;4.108;2022-09-09T11:00:40;8.00;;;1.50;;
19434;SDS011;9853;50.848;4.108;2022-09-09T11:02:47;6.13;;;1.15;;
19434;SDS011;9853;50.848;4.108;2022-09-09T11:04:58;4.25;;;1.15;;
19434;SDS011;9853;50.848;4.108;2022-09-09T11:07:24;6.97;;;1.15;;
19434;SDS011;9853;50.848;4.108;2022-09-09T11:09:32;8.02;;;1.05;;
19434;SDS011;9853;50.848;4.108;2022-09-09T11:11:39;6.10;;;1.13;;
19434;SDS011;9853;50.848;4.108;2022-09-09T11:18:27;5.78;;;1.00;;
19434;SDS011;9853;50.848;4.108;2022-09-09T11:20:31;6.72;;;1.05;;
19434;SDS011;9853;50.848;4.108;2022-09-09T11:22:33;6.60;;;1.05;;
19434;SDS011;9853;50.848;4.108;2022-09-09T11:27:02;4.57;;;1.08;;
19434;SDS011;9853;50.848;4.108;2022-09-09T11:36:49;5.28;;;1.15;;
19434;SDS011;9853;50.848;4.108;2022-09-09T11:39:01;6.97;;;1.02;;
19434;SDS011;9853;50.848;4.108;2022-09-09T11:41:33;5.28;;;1.23;;
19434;SDS011;9853;50.848;4.108;2022-09-09T11:43:39;5.00;;;1.17;;
19434;SDS011;9853;50.848;4.108;2022-09-09T11:45:50;4.57;;;1.05;;
19434;SDS011;9853;50.848;4.108;2022-09-09T11:47:59;3.40;;;0.93;;
19434;SDS011;9853;50.848;4.108;2022-09-09T11:52:43;8.52;;;1.10;;
19434;SDS011;9853;50.848;4.108;2022-09-09T11:54:47;5.22;;;1.05;;
19434;SDS011;9853;50.848;4.108;2022-09-09T11:56:51;9.20;;;1.15;;
19434;SDS011;9853;50.848;4.108;2022-09-09T11:58:56;8.13;;;1.50;;
19434;SDS011;9853;50.848;4.108;2022-09-09T12:01:12;9.13;;;1.25;;
19434;SDS011;9853;50.848;4.108;2022-09-09T12:05:48;5.80;;;1.42;;
19434;SDS011;9853;50.848;4.108;2022-09-09T12:07:52;8.93;;;1.00;;
19434;SDS011;9853;50.848;4.108;2022-09-09T12:16:41;4.00;;;0.95;;
19434;SDS011;9853;50.848;4.108;2022-09-09T12:18:43;6.63;;;1.23;;
19434;SDS011;9853;50.848;4.108;2022-09-09T12:20:57;5.75;;;0.95;;
19434;SDS011;9853;50.848;4.108;2022-09-09T12:23:25;5.75;;;0.95;;
19434;SDS011;9853;50.848;4.108;2022-09-09T12:30:49;8.80;;;1.40;;
19434;SDS011;9853;50.848;4.108;2022-09-09T12:33:02;7.88;;;1.13;;
19434;SDS011;9853;50.848;4.108;2022-09-09T12:35:20;3.38;;;1.00;;
19434;SDS011;9853;50.848;4.108;2022-09-09T12:37:32;4.70;;;1.23;;
19434;SDS011;9853;50.848;4.108;2022-09-09T12:40:23;4.10;;;1.10;;
19434;SDS011;9853;50.848;4.108;2022-09-09T12:42:26;4.55;;;0.90;;
19434;SDS011;9853;50.848;4.108;2022-09-09T12:44:27;7.65;;;0.90;;
19434;SDS011;9853;50.848;4.108;2022-09-09T12:46:44;7.63;;;1.10;;
19434;SDS011;9853;50.848;4.108;2022-09-09T12:48:46;5.03;;;0.80;;
19434;SDS011;9853;50.848;4.108;2022-09-09T12:50:48;4.88;;;0.85;;
19434;SDS011;9853;50.848;4.108;2022-09-09T12:52:52;2.60;;;0.93;;
19434;SDS011;9853;50.848;4.108;2022-09-09T12:55:02;6.47;;;1.10;;
19434;SDS011;9853;50.848;4.108;2022-09-09T12:57:05;5.80;;;0.90;;
19434;SDS011;9853;50.848;4.108;2022-09-09T12:59:18;3.78;;;0.90;;
19434;SDS011;9853;50.848;4.108;2022-09-09T13:01:27;4.30;;;0.80;;
19434;SDS011;9853;50.848;4.108;2022-09-09T13:03:33;6.28;;;1.00;;
19434;SDS011;9853;50.848;4.108;2022-09-09T13:05:43;7.63;;;1.08;;
19434;SDS011;9853;50.848;4.108;2022-09-09T13:07:46;3.33;;;0.90;;
19434;SDS011;9853;50.848;4.108;2022-09-09T13:09:48;5.63;;;1.17;;
19434;SDS011;9853;50.848;4.108;2022-09-09T13:12:12;4.13;;;0.90;;
19434;SDS011;9853;50.848;4.108;2022-09-09T13:14:18;5.03;;;1.10;;
19434;SDS011;9853;50.848;4.108;2022-09-09T13:16:29;5.63;;;0.88;;
19434;SDS011;9853;50.848;4.108;2022-09-09T13:18:34;5.93;;;1.00;;
19434;SDS011;9853;50.848;4.108;2022-09-09T13:20:36;7.97;;;1.10;;
19434;SDS011;9853;50.848;4.108;2022-09-09T13:22:37;5.63;;;0.70;;
19434;SDS011;9853;50.848;4.108;2022-09-09T13:24:40;2.95;;;0.65;;
19434;SDS011;9853;50.848;4.108;2022-09-09T13:26:42;7.78;;;1.05;;
19434;SDS011;9853;50.848;4.108;2022-09-09T13:28:44;2.53;;;0.80;;
19434;SDS011;9853;50.848;4.108;2022-09-09T13:30:59;3.80;;;0.80;;
19434;SDS011;9853;50.848;4.108;2022-09-09T13:33:34;6.65;;;0.70;;
19434;SDS011;9853;50.848;4.108;2022-09-09T13:37:58;6.10;;;0.88;;
19434;SDS011;9853;50.848;4.108;2022-09-09T13:40:17;3.92;;;0.93;;
19434;SDS011;9853;50.848;4.108;2022-09-09T13:42:24;3.30;;;0.90;;
19434;SDS011;9853;50.848;4.108;2022-09-09T13:44:27;2.80;;;0.70;;
19434;SDS011;9853;50.848;4.108;2022-09-09T13:46:38;4.20;;;1.10;;
19434;SDS011;9853;50.848;4.108;2022-09-09T13:48:43;4.03;;;0.82;;
19434;SDS011;9853;50.848;4.108;2022-09-09T13:51:21;4.85;;;0.90;;
19434;SDS011;9853;50.848;4.108;2022-09-09T13:53:33;4.22;;;0.80;;
19434;SDS011;9853;50.848;4.108;2022-09-09T13:55:35;5.90;;;1.20;;
19434;SDS011;9853;50.848;4.108;2022-09-09T13:57:36;8.75;;;1.00;;
19434;SDS011;9853;50.848;4.108;2022-09-09T13:59:37;6.50;;;1.10;;
19434;SDS011;9853;50.848;4.108;2022-09-09T14:01:38;3.97;;;0.90;;
19434;SDS011;9853;50.848;4.108;2022-09-09T14:03:38;8.93;;;0.85;;
19434;SDS011;9853;50.848;4.108;2022-09-09T14:05:39;5.57;;;1.15;;
19434;SDS011;9853;50.848;4.108;2022-09-09T14:07:40;7.93;;;1.00;;
19434;SDS011;9853;50.848;4.108;2022-09-09T14:09:41;8.80;;;1.08;;
19434;SDS011;9853;50.848;4.108;2022-09-09T14:11:43;8.73;;;1.13;;
19434;SDS011;9853;50.848;4.108;2022-09-09T14:13:45;5.60;;;1.00;;
19434;SDS011;9853;50.848;4.108;2022-09-09T14:15:50;5.22;;;1.15;;
19434;SDS011;9853;50.848;4.108;2022-09-09T14:17:51;6.75;;;1.23;;
19434;SDS011;9853;50.848;4.108;2022-09-09T14:19:52;7.60;;;1.23;;
19434;SDS011;9853;50.848;4.108;2022-09-09T14:21:53;5.50;;;0.90;;
19434;SDS011;9853;50.848;4.108;2022-09-09T14:23:54;5.07;;;0.90;;
19434;SDS011;9853;50.848;4.108;2022-09-09T14:25:55;8.13;;;1.10;;
19434;SDS011;9853;50.848;4.108;2022-09-09T14:27:56;4.88;;;1.00;;
19434;SDS011;9853;50.848;4.108;2022-09-09T14:29:57;5.03;;;1.15;;
19434;SDS011;9853;50.848;4.108;2022-09-09T14:31:58;8.10;;;0.95;;
19434;SDS011;9853;50.848;4.108;2022-09-09T14:34:02;4.75;;;0.95;;
19434;SDS011;9853;50.848;4.108;2022-09-09T14:36:03;5.78;;;1.15;;
19434;SDS011;9853;50.848;4.108;2022-09-09T14:38:04;4.60;;;0.90;;
19434;SDS011;9853;50.848;4.108;2022-09-09T14:40:05;7.13;;;1.00;;
19434;SDS011;9853;50.848;4.108;2022-09-09T14:42:07;4.78;;;1.02;;
19434;SDS011;9853;50.848;4.108;2022-09-09T14:44:09;7.63;;;1.35;;
19434;SDS011;9853;50.848;4.108;2022-09-09T14:46:11;6.22;;;0.80;;
19434;SDS011;9853;50.848;4.108;2022-09-09T14:48:16;4.70;;;1.10;;
19434;SDS011;9853;50.848;4.108;2022-09-09T14:50:21;5.95;;;1.00;;
19434;SDS011;9853;50.848;4.108;2022-09-09T14:52:22;4.18;;;1.08;;
19434;SDS011;9853;50.848;4.108;2022-09-09T14:54:23;2.92;;;0.82;;
19434;SDS011;9853;50.848;4.108;2022-09-09T14:56:25;3.90;;;0.90;;
19434;SDS011;9853;50.848;4.108;2022-09-09T14:58:30;3.03;;;0.93;;